Bookmark and Share
Track history (hours):
 

BBC Polonia

Last reported at 2014-Apr-08 01:32 UTC. Time now 2014-Apr-20 03:19 UTC.
Position N 37°38' E 023°42'.
Warning: this ship's position is 12 days out of date.

Length 123 m; draft 5.6 m.

Type: Cargo ship. MMSI: 305614000.

NotesDate/timePositionNaut miles runAvg speedWind from/ knotsBaromVisibWave heightAir tempDewpointWater temp
2014-Apr-08 01:32N 37°38' E 023°42'1312.8
2014-Apr-08 00:33N 37°50' E 023°36'4 3.8
2014-Apr-07 23:31N 37°53' E 023°33'0 0.0
2014-Apr-07 22:31N 37°53' E 023°33'0 0.0
2014-Apr-07 21:31N 37°53' E 023°33'2 2.0
2014-Apr-07 20:33N 37°51' E 023°35'5 4.5
2014-Apr-07 19:31N 37°48' E 023°31'2 0.2
2014-Apr-07 08:33N 37°49' E 023°33'9 8.8
2014-Apr-07 07:33N 37°45' E 023°43'33 9.9
2014-Apr-07 04:16N 37°48' E 024°24'913.3
2014-Apr-07 03:33N 37°55' E 024°32'73 1.5
2014-Apr-05 02:30N 38°36' E 025°50'1212.7
2014-Apr-05 01:33N 38°30' E 025°37'1212.3
2014-Apr-05 00:33N 38°23' E 025°24'1212.3
2014-Apr-04 23:33N 38°16' E 025°11'3612.0
2014-Apr-04 20:33N 37°53' E 024°36'1212.4
2014-Apr-04 19:33N 37°41' E 024°30'1211.9
2014-Apr-04 18:33N 37°31' E 024°24'1212.1
2014-Apr-04 17:33N 37°22' E 024°13'1212.5
2014-Apr-04 16:33N 37°12' E 024°03'1312.7
2014-Apr-04 15:34N 37°03' E 023°52'1312.7
2014-Apr-04 14:34N 36°54' E 023°41'1312.7
2014-Apr-04 13:33N 36°44' E 023°31'1413.1
2014-Apr-04 12:30N 36°33' E 023°21'1212.8
2014-Apr-04 11:34N 36°23' E 023°12'1612.1
2014-Apr-04 10:17N 36°24' E 022°53'1412.7
2014-Apr-04 09:11N 36°21' E 022°36'812.1
2014-Apr-04 08:33N 36°21' E 022°26'1212.0
2014-Apr-04 07:34N 36°20' E 022°12'1512.1
2014-Apr-04 06:18N 36°20' E 021°53'34912.1
2014-Apr-03 01:32N 36°27' E 014°40'1212.4
2014-Apr-03 00:33N 36°30' E 014°25'1412.1
2014-Apr-02 23:26N 36°34' E 014°09'1112.3
2014-Apr-02 22:33N 36°37' E 013°56'1212.1
2014-Apr-02 21:33N 36°41' E 013°42'1312.1
2014-Apr-02 20:28N 36°45' E 013°26'7111.8
2014-Apr-02 14:25N 37°07' E 012°01'1111.7
2014-Apr-02 13:27N 37°10' E 011°47'1111.8
2014-Apr-02 12:33N 37°14' E 011°35'6011.8
2014-Apr-02 07:29N 37°31' E 010°23'1111.9
2014-Apr-02 06:32N 37°33' E 010°09'1312.8
2014-Apr-02 05:32N 37°34' E 009°53'1612.0
2014-Apr-02 04:10N 37°35' E 009°32'3112.0
2014-Apr-02 01:33N 37°37' E 008°53'1312.5
2014-Apr-02 00:33N 37°36' E 008°37'1212.4
2014-Apr-01 23:33N 37°34' E 008°21'1211.9
2014-Apr-01 22:33N 37°33' E 008°07'4911.6
2014-Apr-01 18:21N 37°28' E 007°06'2412.4
2014-Apr-01 16:25N 37°24' E 006°36'8611.7
2014-Apr-01 09:05N 37°15' E 004°48'612.4
2014-Apr-01 08:33N 37°15' E 004°40'2713.1
2014-Apr-01 06:29N 37°11' E 004°06'5212.9
2014-Apr-01 02:27N 37°01' E 003°02'1212.3
2014-Apr-01 01:27N 36°59' E 002°47'1213.0
2014-Apr-01 00:33N 36°56' E 002°32'1212.2
2014-Mar-31 23:34N 36°55' E 002°17'1311.9
2014-Mar-31 22:29N 36°53' E 002°01'2412.5
2014-Mar-31 20:33N 36°48' E 001°32'1312.8
2014-Mar-31 19:33N 36°46' E 001°16'2812.4
2014-Mar-31 17:18N 36°41' E 000°42'29112.8
2014-Mar-30 18:33N 35°58' W 005°15'3515.1
2014-Mar-30 16:15N 35°51' W 005°57'  

Dump ship's entire track history

sailing weather and tide predictions

BBC Polonia — V2EZ6 — position and weather